Alsen, South Dakota
Current Conditions -  °F | °C
As of 11:15 AM on Friday 28 Nov 2014 (Local Time) from KYKN Reporting Station
Clear Clear  
Wind Chill: -1°   Ceiling: Unl
Heat Index:   Visibility: 10mi
Dew Point: -4°   Wind: 7mph
Humidity: 65%   Direction: 90°E
Pressure: 29.77"   Gusts: NA
Location:  43.1048°N, 96.7944°W
Report Text: KYKN 281715Z AUTO 09006KT 10SM CLR 02/M04 A2977 RMK AO1
Loading
Personal Weather Stations






























Interactive Weather Map New forecast layout! Learn more

10-Day Weather Forecast

Advertisements
Track Severe Weather on mobile